In Rescue
 
Open Full Screen Window  High Contrast Mode
Wind Gusting 19 knots
12
May 20, 2019 3:17 PM EDT
Weather Information
Wind Direction
  290 °
Wind Speed
  12 kt (14 mph)
Wind Gust
  19 kt (22 mph)
Altimeter
30.01 in
Visibility
10 SM
Temperature
10° C
50° F
Dewpoint
05° C
41° F
Humidity
71%
Sky Condition
Overcast @ 3,200 ft
Broken @ 2,300 ft
MVFR

METAR KTEW 201917Z AUTO 29012G19KT 10SM BKN023 OVC032 10/05 A3001 RMK AO2 T01040054

FAA Disclaimer: The data displayed is for advisory purposes only and is not to be used for flight planning or operations.